Terminal Aerodrome Forecast
Issued by NWS

Home | Current Version | Previous Version | Text Only | Print | Product List | Glossary On
Versions: 1 2 3 4 5 6 7 8 9 10 11 12 13 14 15 16 17
000
FTUS43 KLSX 142000 AAB
TAFCPS
TAF AMD
KCPS 142054Z 1421/1518 31014G22KT 4SM -DZ BR OVC016
     FM142200 33016G24KT 3SM -SN OVC018
      TEMPO 1423/1501 1SM -SN OVC008
     FM150200 33015KT P6SM BKN035
     FM150600 32009KT P6SM SKC=

USA.gov is the U.S. government's official web portal to all federal, state and local government web resources and services.